Fife, Washington
Current Conditions -  °F | °C
As of 10:58 PM on Saturday 20 Dec 2014 (Local Time) from KTCM Reporting Station
Broken Clouds Broken Clouds  
Wind Chill: 54°   Ceiling: 3100
Heat Index: 54°   Visibility: 10mi
Dew Point: 53°   Wind: 15mph
Humidity: 97%   Direction: 220°SW
Pressure: 29.56"   Gusts: 25mph
Location:  47.2401°N, 122.358°W
Report Text: KTCM 210658Z AUTO 22013G22KT 10SM SCT024 BKN031 12/12 A2956 RMK AO2 PK WND 24030/02 RAE09DZB09E11 CIG 021 RWY34 SLP014 P0001 T01220117
Loading
Personal Weather Stations






























Interactive Weather Map New forecast layout! Learn more

10-Day Weather Forecast

Advertisements
Track Severe Weather on mobile